sensor_id;sensor_type;location;lat;lon;timestamp;pressure;altitude;pressure_sealevel;temperature
21210;BMP180;10762;42.206;25.326;2024-01-07T00:01:56;98239.00;;;17.10
21210;BMP180;10762;42.206;25.326;2024-01-07T00:04:22;98234.00;;;17.20
21210;BMP180;10762;42.206;25.326;2024-01-07T00:06:48;98232.00;;;17.20
21210;BMP180;10762;42.206;25.326;2024-01-07T00:09:15;98243.00;;;17.20
21210;BMP180;10762;42.206;25.326;2024-01-07T00:11:41;98243.00;;;17.20
21210;BMP180;10762;42.206;25.326;2024-01-07T00:14:07;98225.00;;;17.20
21210;BMP180;10762;42.206;25.326;2024-01-07T00:16:33;98224.00;;;17.20
21210;BMP180;10762;42.206;25.326;2024-01-07T00:19:00;98217.00;;;17.10
21210;BMP180;10762;42.206;25.326;2024-01-07T00:21:26;98210.00;;;17.10
21210;BMP180;10762;42.206;25.326;2024-01-07T00:23:52;98214.00;;;17.10
21210;BMP180;10762;42.206;25.326;2024-01-07T00:26:18;98221.00;;;17.10
21210;BMP180;10762;42.206;25.326;2024-01-07T00:28:44;98239.00;;;17.10
21210;BMP180;10762;42.206;25.326;2024-01-07T00:31:11;98227.00;;;17.10
21210;BMP180;10762;42.206;25.326;2024-01-07T00:33:37;98241.00;;;17.20
21210;BMP180;10762;42.206;25.326;2024-01-07T00:36:03;98226.00;;;17.20
21210;BMP180;10762;42.206;25.326;2024-01-07T00:38:29;98226.00;;;17.20
21210;BMP180;10762;42.206;25.326;2024-01-07T00:40:56;98204.00;;;17.20
21210;BMP180;10762;42.206;25.326;2024-01-07T00:43:22;98211.00;;;17.20
21210;BMP180;10762;42.206;25.326;2024-01-07T00:45:48;98212.00;;;17.20
21210;BMP180;10762;42.206;25.326;2024-01-07T00:48:14;98212.00;;;17.10
21210;BMP180;10762;42.206;25.326;2024-01-07T00:50:40;98207.00;;;17.10
21210;BMP180;10762;42.206;25.326;2024-01-07T00:53:06;98201.00;;;17.10
21210;BMP180;10762;42.206;25.326;2024-01-07T00:55:32;98193.00;;;17.10
21210;BMP180;10762;42.206;25.326;2024-01-07T00:57:58;98189.00;;;17.10
21210;BMP180;10762;42.206;25.326;2024-01-07T01:00:24;98180.00;;;17.10
21210;BMP180;10762;42.206;25.326;2024-01-07T01:02:50;98164.00;;;17.10
21210;BMP180;10762;42.206;25.326;2024-01-07T01:05:16;98163.00;;;17.10
21210;BMP180;10762;42.206;25.326;2024-01-07T01:07:42;98158.00;;;17.10
21210;BMP180;10762;42.206;25.326;2024-01-07T01:10:09;98162.00;;;17.00
21210;BMP180;10762;42.206;25.326;2024-01-07T01:12:39;98160.00;;;17.00
21210;BMP180;10762;42.206;25.326;2024-01-07T01:15:05;98155.00;;;17.10
21210;BMP180;10762;42.206;25.326;2024-01-07T01:17:31;98149.00;;;17.00
21210;BMP180;10762;42.206;25.326;2024-01-07T01:19:57;98131.00;;;17.00
21210;BMP180;10762;42.206;25.326;2024-01-07T01:22:23;98127.00;;;16.90
21210;BMP180;10762;42.206;25.326;2024-01-07T01:24:49;98125.00;;;16.90
21210;BMP180;10762;42.206;25.326;2024-01-07T01:27:16;98114.00;;;16.90
21210;BMP180;10762;42.206;25.326;2024-01-07T01:29:42;98105.00;;;16.90
21210;BMP180;10762;42.206;25.326;2024-01-07T01:32:09;98096.00;;;16.80
21210;BMP180;10762;42.206;25.326;2024-01-07T01:34:36;98105.00;;;16.80
21210;BMP180;10762;42.206;25.326;2024-01-07T01:37:02;98100.00;;;16.80
21210;BMP180;10762;42.206;25.326;2024-01-07T01:39:28;98096.00;;;16.70
21210;BMP180;10762;42.206;25.326;2024-01-07T01:41:54;98083.00;;;16.70
21210;BMP180;10762;42.206;25.326;2024-01-07T01:44:21;98080.00;;;16.70
21210;BMP180;10762;42.206;25.326;2024-01-07T01:46:47;98085.00;;;16.70
21210;BMP180;10762;42.206;25.326;2024-01-07T01:49:13;98083.00;;;16.70
21210;BMP180;10762;42.206;25.326;2024-01-07T01:51:39;98071.00;;;16.60
21210;BMP180;10762;42.206;25.326;2024-01-07T01:54:05;98035.00;;;16.60
21210;BMP180;10762;42.206;25.326;2024-01-07T01:56:32;98031.00;;;16.60
21210;BMP180;10762;42.206;25.326;2024-01-07T01:58:59;98046.00;;;16.60
21210;BMP180;10762;42.206;25.326;2024-01-07T02:01:25;98034.00;;;16.60
21210;BMP180;10762;42.206;25.326;2024-01-07T02:03:51;98043.00;;;16.60
21210;BMP180;10762;42.206;25.326;2024-01-07T02:06:19;98008.00;;;16.60
21210;BMP180;10762;42.206;25.326;2024-01-07T02:08:45;98018.00;;;16.60
21210;BMP180;10762;42.206;25.326;2024-01-07T02:11:18;98012.00;;;16.60
21210;BMP180;10762;42.206;25.326;2024-01-07T02:13:44;98012.00;;;16.60
21210;BMP180;10762;42.206;25.326;2024-01-07T02:16:10;97996.00;;;16.60
21210;BMP180;10762;42.206;25.326;2024-01-07T02:18:37;97990.00;;;16.60
21210;BMP180;10762;42.206;25.326;2024-01-07T02:21:03;97979.00;;;16.60
21210;BMP180;10762;42.206;25.326;2024-01-07T02:23:29;97975.00;;;16.60
21210;BMP180;10762;42.206;25.326;2024-01-07T02:25:55;97947.00;;;16.60
21210;BMP180;10762;42.206;25.326;2024-01-07T02:28:21;97959.00;;;16.60
21210;BMP180;10762;42.206;25.326;2024-01-07T02:30:47;97944.00;;;16.60
21210;BMP180;10762;42.206;25.326;2024-01-07T02:33:13;97938.00;;;16.60
21210;BMP180;10762;42.206;25.326;2024-01-07T02:35:39;97937.00;;;16.70
21210;BMP180;10762;42.206;25.326;2024-01-07T02:38:05;97917.00;;;16.60
21210;BMP180;10762;42.206;25.326;2024-01-07T02:40:31;97906.00;;;16.60
21210;BMP180;10762;42.206;25.326;2024-01-07T02:42:58;97914.00;;;16.50
21210;BMP180;10762;42.206;25.326;2024-01-07T02:45:24;97909.00;;;16.50
21210;BMP180;10762;42.206;25.326;2024-01-07T02:47:50;97902.00;;;16.50
21210;BMP180;10762;42.206;25.326;2024-01-07T02:50:16;97922.00;;;16.50
21210;BMP180;10762;42.206;25.326;2024-01-07T02:52:42;97915.00;;;16.50
21210;BMP180;10762;42.206;25.326;2024-01-07T02:55:09;97904.00;;;16.50
21210;BMP180;10762;42.206;25.326;2024-01-07T02:57:35;97903.00;;;16.50
21210;BMP180;10762;42.206;25.326;2024-01-07T03:00:01;97887.00;;;16.40
21210;BMP180;10762;42.206;25.326;2024-01-07T03:02:28;97901.00;;;16.40
21210;BMP180;10762;42.206;25.326;2024-01-07T03:04:54;97902.00;;;16.40
21210;BMP180;10762;42.206;25.326;2024-01-07T03:07:20;97881.00;;;16.40
21210;BMP180;10762;42.206;25.326;2024-01-07T03:09:47;97875.00;;;16.50
21210;BMP180;10762;42.206;25.326;2024-01-07T03:12:14;97874.00;;;16.50
21210;BMP180;10762;42.206;25.326;2024-01-07T03:14:40;97868.00;;;16.50
21210;BMP180;10762;42.206;25.326;2024-01-07T03:17:06;97852.00;;;16.60
21210;BMP180;10762;42.206;25.326;2024-01-07T03:19:33;97862.00;;;16.60
21210;BMP180;10762;42.206;25.326;2024-01-07T03:21:59;97845.00;;;16.60
21210;BMP180;10762;42.206;25.326;2024-01-07T03:24:25;97841.00;;;16.70
21210;BMP180;10762;42.206;25.326;2024-01-07T03:26:51;97846.00;;;16.70
21210;BMP180;10762;42.206;25.326;2024-01-07T03:29:17;97850.00;;;16.70
21210;BMP180;10762;42.206;25.326;2024-01-07T03:31:43;97848.00;;;16.70
21210;BMP180;10762;42.206;25.326;2024-01-07T03:34:09;97834.00;;;16.60
21210;BMP180;10762;42.206;25.326;2024-01-07T03:36:35;97841.00;;;16.60
21210;BMP180;10762;42.206;25.326;2024-01-07T03:39:01;97853.00;;;16.60
21210;BMP180;10762;42.206;25.326;2024-01-07T03:41:28;97823.00;;;16.60
21210;BMP180;10762;42.206;25.326;2024-01-07T03:43:54;97805.00;;;16.70
21210;BMP180;10762;42.206;25.326;2024-01-07T03:46:20;97802.00;;;16.60
21210;BMP180;10762;42.206;25.326;2024-01-07T03:48:46;97787.00;;;16.60
21210;BMP180;10762;42.206;25.326;2024-01-07T03:51:12;97796.00;;;16.60
21210;BMP180;10762;42.206;25.326;2024-01-07T03:53:38;97793.00;;;16.60
21210;BMP180;10762;42.206;25.326;2024-01-07T03:56:05;97795.00;;;16.60
21210;BMP180;10762;42.206;25.326;2024-01-07T03:58:31;97780.00;;;16.60
21210;BMP180;10762;42.206;25.326;2024-01-07T04:00:57;97785.00;;;16.60
21210;BMP180;10762;42.206;25.326;2024-01-07T04:03:23;97789.00;;;16.60
21210;BMP180;10762;42.206;25.326;2024-01-07T04:05:49;97772.00;;;16.60
21210;BMP180;10762;42.206;25.326;2024-01-07T04:08:15;97762.00;;;16.60
21210;BMP180;10762;42.206;25.326;2024-01-07T04:10:41;97754.00;;;16.60
21210;BMP180;10762;42.206;25.326;2024-01-07T04:13:08;97745.00;;;16.50
21210;BMP180;10762;42.206;25.326;2024-01-07T04:15:34;97717.00;;;16.50
21210;BMP180;10762;42.206;25.326;2024-01-07T04:18:03;97723.00;;;16.50
21210;BMP180;10762;42.206;25.326;2024-01-07T04:20:30;97717.00;;;16.40
21210;BMP180;10762;42.206;25.326;2024-01-07T04:22:56;97710.00;;;16.40
21210;BMP180;10762;42.206;25.326;2024-01-07T04:25:23;97719.00;;;16.40
21210;BMP180;10762;42.206;25.326;2024-01-07T04:27:49;97729.00;;;16.40
21210;BMP180;10762;42.206;25.326;2024-01-07T04:30:16;97737.00;;;16.40
21210;BMP180;10762;42.206;25.326;2024-01-07T04:32:42;97733.00;;;16.40
21210;BMP180;10762;42.206;25.326;2024-01-07T04:35:08;97720.00;;;16.40
21210;BMP180;10762;42.206;25.326;2024-01-07T04:37:34;97712.00;;;16.40
21210;BMP180;10762;42.206;25.326;2024-01-07T04:40:01;97710.00;;;16.40
21210;BMP180;10762;42.206;25.326;2024-01-07T04:42:27;97706.00;;;16.40
21210;BMP180;10762;42.206;25.326;2024-01-07T04:44:53;97710.00;;;16.40
21210;BMP180;10762;42.206;25.326;2024-01-07T04:47:26;97720.00;;;16.40
21210;BMP180;10762;42.206;25.326;2024-01-07T04:49:53;97721.00;;;16.40
21210;BMP180;10762;42.206;25.326;2024-01-07T04:52:19;97719.00;;;16.40
21210;BMP180;10762;42.206;25.326;2024-01-07T04:54:45;97725.00;;;16.30
21210;BMP180;10762;42.206;25.326;2024-01-07T04:57:11;97715.00;;;16.40
21210;BMP180;10762;42.206;25.326;2024-01-07T04:59:37;97709.00;;;16.40
21210;BMP180;10762;42.206;25.326;2024-01-07T05:02:03;97709.00;;;16.30
21210;BMP180;10762;42.206;25.326;2024-01-07T05:04:29;97700.00;;;16.30
21210;BMP180;10762;42.206;25.326;2024-01-07T05:06:55;97699.00;;;16.30
21210;BMP180;10762;42.206;25.326;2024-01-07T05:09:21;97698.00;;;16.20
21210;BMP180;10762;42.206;25.326;2024-01-07T05:11:47;97711.00;;;16.20
21210;BMP180;10762;42.206;25.326;2024-01-07T05:14:13;97730.00;;;16.10
21210;BMP180;10762;42.206;25.326;2024-01-07T05:16:39;97735.00;;;16.10
21210;BMP180;10762;42.206;25.326;2024-01-07T05:19:05;97734.00;;;16.00
21210;BMP180;10762;42.206;25.326;2024-01-07T05:21:31;97731.00;;;16.00
21210;BMP180;10762;42.206;25.326;2024-01-07T05:23:57;97738.00;;;15.90
21210;BMP180;10762;42.206;25.326;2024-01-07T05:26:23;97751.00;;;15.90
21210;BMP180;10762;42.206;25.326;2024-01-07T05:28:49;97749.00;;;15.80
21210;BMP180;10762;42.206;25.326;2024-01-07T05:31:16;97773.00;;;15.80
21210;BMP180;10762;42.206;25.326;2024-01-07T05:33:43;97770.00;;;15.70
21210;BMP180;10762;42.206;25.326;2024-01-07T05:36:09;97762.00;;;15.70
21210;BMP180;10762;42.206;25.326;2024-01-07T05:38:35;97786.00;;;15.60
21210;BMP180;10762;42.206;25.326;2024-01-07T05:41:01;97778.00;;;15.60
21210;BMP180;10762;42.206;25.326;2024-01-07T05:43:27;97790.00;;;15.50
21210;BMP180;10762;42.206;25.326;2024-01-07T05:45:54;97799.00;;;15.50
21210;BMP180;10762;42.206;25.326;2024-01-07T05:48:23;97787.00;;;15.40
21210;BMP180;10762;42.206;25.326;2024-01-07T05:50:49;97765.00;;;15.40
21210;BMP180;10762;42.206;25.326;2024-01-07T05:53:17;97757.00;;;15.30
21210;BMP180;10762;42.206;25.326;2024-01-07T05:55:43;97757.00;;;15.20
21210;BMP180;10762;42.206;25.326;2024-01-07T05:58:11;97754.00;;;15.20
21210;BMP180;10762;42.206;25.326;2024-01-07T06:00:37;97751.00;;;15.10
21210;BMP180;10762;42.206;25.326;2024-01-07T06:03:03;97754.00;;;15.10
21210;BMP180;10762;42.206;25.326;2024-01-07T06:05:29;97741.00;;;15.00
21210;BMP180;10762;42.206;25.326;2024-01-07T06:07:55;97723.00;;;15.00
21210;BMP180;10762;42.206;25.326;2024-01-07T06:10:21;97710.00;;;15.00
21210;BMP180;10762;42.206;25.326;2024-01-07T06:12:48;97696.00;;;15.00
21210;BMP180;10762;42.206;25.326;2024-01-07T06:15:14;97695.00;;;14.90
21210;BMP180;10762;42.206;25.326;2024-01-07T06:17:40;97689.00;;;14.90
21210;BMP180;10762;42.206;25.326;2024-01-07T06:20:06;97694.00;;;14.90
21210;BMP180;10762;42.206;25.326;2024-01-07T06:22:33;97710.00;;;14.90
21210;BMP180;10762;42.206;25.326;2024-01-07T06:25:00;97698.00;;;14.90
21210;BMP180;10762;42.206;25.326;2024-01-07T06:27:26;97701.00;;;14.90
21210;BMP180;10762;42.206;25.326;2024-01-07T06:29:52;97700.00;;;14.90
21210;BMP180;10762;42.206;25.326;2024-01-07T06:32:18;97693.00;;;15.00
21210;BMP180;10762;42.206;25.326;2024-01-07T06:34:44;97703.00;;;15.00
21210;BMP180;10762;42.206;25.326;2024-01-07T06:37:10;97704.00;;;15.00
21210;BMP180;10762;42.206;25.326;2024-01-07T06:39:36;97718.00;;;15.10
21210;BMP180;10762;42.206;25.326;2024-01-07T06:42:02;97725.00;;;15.20
21210;BMP180;10762;42.206;25.326;2024-01-07T06:44:28;97732.00;;;15.20
21210;BMP180;10762;42.206;25.326;2024-01-07T06:46:54;97745.00;;;15.30
21210;BMP180;10762;42.206;25.326;2024-01-07T06:49:20;97754.00;;;15.30
21210;BMP180;10762;42.206;25.326;2024-01-07T06:51:46;97761.00;;;15.40
21210;BMP180;10762;42.206;25.326;2024-01-07T06:54:12;97760.00;;;15.40
21210;BMP180;10762;42.206;25.326;2024-01-07T06:56:38;97759.00;;;15.40
21210;BMP180;10762;42.206;25.326;2024-01-07T06:59:04;97769.00;;;15.50
21210;BMP180;10762;42.206;25.326;2024-01-07T07:01:31;97770.00;;;15.50
21210;BMP180;10762;42.206;25.326;2024-01-07T07:03:57;97776.00;;;15.50
21210;BMP180;10762;42.206;25.326;2024-01-07T07:06:23;97771.00;;;15.60
21210;BMP180;10762;42.206;25.326;2024-01-07T07:08:50;97775.00;;;15.60
21210;BMP180;10762;42.206;25.326;2024-01-07T07:11:16;97770.00;;;15.60
21210;BMP180;10762;42.206;25.326;2024-01-07T07:13:42;97773.00;;;15.60
21210;BMP180;10762;42.206;25.326;2024-01-07T07:16:08;97773.00;;;15.70
21210;BMP180;10762;42.206;25.326;2024-01-07T07:18:34;97766.00;;;15.70
21210;BMP180;10762;42.206;25.326;2024-01-07T07:21:00;97767.00;;;15.80
21210;BMP180;10762;42.206;25.326;2024-01-07T07:23:26;97767.00;;;15.80
21210;BMP180;10762;42.206;25.326;2024-01-07T07:25:52;97760.00;;;15.90
21210;BMP180;10762;42.206;25.326;2024-01-07T07:28:18;97766.00;;;15.90
21210;BMP180;10762;42.206;25.326;2024-01-07T07:30:44;97775.00;;;16.00
21210;BMP180;10762;42.206;25.326;2024-01-07T07:33:10;97762.00;;;16.00
21210;BMP180;10762;42.206;25.326;2024-01-07T07:35:36;97779.00;;;16.10
21210;BMP180;10762;42.206;25.326;2024-01-07T07:38:04;97773.00;;;16.20
21210;BMP180;10762;42.206;25.326;2024-01-07T07:40:30;97758.00;;;16.30
21210;BMP180;10762;42.206;25.326;2024-01-07T07:42:56;97766.00;;;16.40
21210;BMP180;10762;42.206;25.326;2024-01-07T07:45:23;97747.00;;;16.50
21210;BMP180;10762;42.206;25.326;2024-01-07T07:47:49;97756.00;;;16.60
21210;BMP180;10762;42.206;25.326;2024-01-07T07:50:15;97755.00;;;16.80
21210;BMP180;10762;42.206;25.326;2024-01-07T07:52:41;97753.00;;;16.90
21210;BMP180;10762;42.206;25.326;2024-01-07T07:55:09;97757.00;;;17.10
21210;BMP180;10762;42.206;25.326;2024-01-07T07:57:35;97753.00;;;17.20
21210;BMP180;10762;42.206;25.326;2024-01-07T08:00:02;97756.00;;;17.30
21210;BMP180;10762;42.206;25.326;2024-01-07T08:02:28;97755.00;;;17.30
21210;BMP180;10762;42.206;25.326;2024-01-07T08:04:54;97767.00;;;17.30
21210;BMP180;10762;42.206;25.326;2024-01-07T08:07:20;97759.00;;;17.30
21210;BMP180;10762;42.206;25.326;2024-01-07T08:09:46;97750.00;;;17.20
21210;BMP180;10762;42.206;25.326;2024-01-07T08:12:13;97743.00;;;17.20
21210;BMP180;10762;42.206;25.326;2024-01-07T08:14:39;97749.00;;;17.20
21210;BMP180;10762;42.206;25.326;2024-01-07T08:17:08;97755.00;;;17.30
21210;BMP180;10762;42.206;25.326;2024-01-07T08:19:35;97761.00;;;17.30
21210;BMP180;10762;42.206;25.326;2024-01-07T08:22:01;97753.00;;;17.30
21210;BMP180;10762;42.206;25.326;2024-01-07T08:24:27;97752.00;;;17.30
21210;BMP180;10762;42.206;25.326;2024-01-07T08:26:53;97753.00;;;17.30
21210;BMP180;10762;42.206;25.326;2024-01-07T08:29:20;97756.00;;;17.40
21210;BMP180;10762;42.206;25.326;2024-01-07T08:31:46;97751.00;;;17.30
21210;BMP180;10762;42.206;25.326;2024-01-07T08:34:12;97741.00;;;17.40
21210;BMP180;10762;42.206;25.326;2024-01-07T08:36:39;97740.00;;;17.50
21210;BMP180;10762;42.206;25.326;2024-01-07T08:39:05;97756.00;;;17.50
21210;BMP180;10762;42.206;25.326;2024-01-07T08:41:31;97748.00;;;17.60
21210;BMP180;10762;42.206;25.326;2024-01-07T08:43:57;97737.00;;;17.70
21210;BMP180;10762;42.206;25.326;2024-01-07T08:46:23;97738.00;;;17.70
21210;BMP180;10762;42.206;25.326;2024-01-07T08:48:49;97735.00;;;17.80
21210;BMP180;10762;42.206;25.326;2024-01-07T08:51:15;97727.00;;;17.90
21210;BMP180;10762;42.206;25.326;2024-01-07T08:53:41;97711.00;;;17.90
21210;BMP180;10762;42.206;25.326;2024-01-07T08:56:07;97722.00;;;18.00
21210;BMP180;10762;42.206;25.326;2024-01-07T08:58:34;97738.00;;;18.00
21210;BMP180;10762;42.206;25.326;2024-01-07T09:01:00;97725.00;;;18.10
21210;BMP180;10762;42.206;25.326;2024-01-07T09:03:26;97724.00;;;18.10
21210;BMP180;10762;42.206;25.326;2024-01-07T09:05:52;97723.00;;;18.20
21210;BMP180;10762;42.206;25.326;2024-01-07T09:08:19;97717.00;;;18.20
21210;BMP180;10762;42.206;25.326;2024-01-07T09:10:45;97724.00;;;18.30
21210;BMP180;10762;42.206;25.326;2024-01-07T09:13:11;97726.00;;;18.30
21210;BMP180;10762;42.206;25.326;2024-01-07T09:15:37;97730.00;;;18.40
21210;BMP180;10762;42.206;25.326;2024-01-07T09:18:03;97722.00;;;18.40
21210;BMP180;10762;42.206;25.326;2024-01-07T09:20:29;97723.00;;;18.40
21210;BMP180;10762;42.206;25.326;2024-01-07T09:22:55;97720.00;;;18.50
21210;BMP180;10762;42.206;25.326;2024-01-07T09:25:21;97717.00;;;18.50
21210;BMP180;10762;42.206;25.326;2024-01-07T09:27:47;97709.00;;;18.60
21210;BMP180;10762;42.206;25.326;2024-01-07T09:30:13;97706.00;;;18.60
21210;BMP180;10762;42.206;25.326;2024-01-07T09:32:41;97703.00;;;18.60
21210;BMP180;10762;42.206;25.326;2024-01-07T09:35:07;97700.00;;;18.60
21210;BMP180;10762;42.206;25.326;2024-01-07T09:37:36;97704.00;;;18.60
21210;BMP180;10762;42.206;25.326;2024-01-07T09:40:03;97701.00;;;18.50
21210;BMP180;10762;42.206;25.326;2024-01-07T09:42:32;97692.00;;;18.50
21210;BMP180;10762;42.206;25.326;2024-01-07T09:45:00;97687.00;;;18.50
21210;BMP180;10762;42.206;25.326;2024-01-07T09:47:28;97690.00;;;18.50
21210;BMP180;10762;42.206;25.326;2024-01-07T09:49:54;97676.00;;;18.50
21210;BMP180;10762;42.206;25.326;2024-01-07T09:52:20;97674.00;;;18.50
21210;BMP180;10762;42.206;25.326;2024-01-07T09:54:47;97671.00;;;18.50
21210;BMP180;10762;42.206;25.326;2024-01-07T09:57:16;97670.00;;;18.60
21210;BMP180;10762;42.206;25.326;2024-01-07T09:59:42;97674.00;;;18.60
21210;BMP180;10762;42.206;25.326;2024-01-07T10:02:08;97667.00;;;18.70
21210;BMP180;10762;42.206;25.326;2024-01-07T10:04:35;97669.00;;;18.80
21210;BMP180;10762;42.206;25.326;2024-01-07T10:07:01;97655.00;;;18.80
21210;BMP180;10762;42.206;25.326;2024-01-07T10:09:28;97652.00;;;18.90
21210;BMP180;10762;42.206;25.326;2024-01-07T10:11:54;97639.00;;;18.90
21210;BMP180;10762;42.206;25.326;2024-01-07T10:14:21;97646.00;;;19.00
21210;BMP180;10762;42.206;25.326;2024-01-07T10:16:53;97637.00;;;19.00
21210;BMP180;10762;42.206;25.326;2024-01-07T10:19:19;97640.00;;;19.10
21210;BMP180;10762;42.206;25.326;2024-01-07T10:21:46;97630.00;;;19.10
21210;BMP180;10762;42.206;25.326;2024-01-07T10:24:13;97627.00;;;19.10
21210;BMP180;10762;42.206;25.326;2024-01-07T10:26:39;97592.00;;;19.00
21210;BMP180;10762;42.206;25.326;2024-01-07T10:29:06;97602.00;;;18.90
21210;BMP180;10762;42.206;25.326;2024-01-07T10:31:33;97600.00;;;18.80
21210;BMP180;10762;42.206;25.326;2024-01-07T10:34:00;97594.00;;;18.70
21210;BMP180;10762;42.206;25.326;2024-01-07T10:36:26;97592.00;;;18.60
21210;BMP180;10762;42.206;25.326;2024-01-07T10:38:52;97585.00;;;18.60
21210;BMP180;10762;42.206;25.326;2024-01-07T10:41:19;97588.00;;;18.50
21210;BMP180;10762;42.206;25.326;2024-01-07T10:43:46;97585.00;;;18.50
21210;BMP180;10762;42.206;25.326;2024-01-07T10:46:12;97586.00;;;18.50
21210;BMP180;10762;42.206;25.326;2024-01-07T10:48:41;97587.00;;;18.50
21210;BMP180;10762;42.206;25.326;2024-01-07T10:51:08;97589.00;;;18.60
21210;BMP180;10762;42.206;25.326;2024-01-07T10:53:35;97578.00;;;18.60
21210;BMP180;10762;42.206;25.326;2024-01-07T10:56:06;97580.00;;;18.60
21210;BMP180;10762;42.206;25.326;2024-01-07T10:58:33;97576.00;;;18.60
21210;BMP180;10762;42.206;25.326;2024-01-07T11:01:02;97577.00;;;18.70
21210;BMP180;10762;42.206;25.326;2024-01-07T11:03:40;97558.00;;;18.80
21210;BMP180;10762;42.206;25.326;2024-01-07T11:06:11;97557.00;;;18.90
21210;BMP180;10762;42.206;25.326;2024-01-07T11:08:59;97561.00;;;18.90
21210;BMP180;10762;42.206;25.326;2024-01-07T11:11:35;97550.00;;;18.90
21210;BMP180;10762;42.206;25.326;2024-01-07T11:14:03;97554.00;;;18.90
21210;BMP180;10762;42.206;25.326;2024-01-07T11:16:46;97558.00;;;18.90
21210;BMP180;10762;42.206;25.326;2024-01-07T11:19:13;97551.00;;;19.00
21210;BMP180;10762;42.206;25.326;2024-01-07T11:21:40;97553.00;;;19.00
21210;BMP180;10762;42.206;25.326;2024-01-07T11:24:06;97545.00;;;19.00
21210;BMP180;10762;42.206;25.326;2024-01-07T11:26:32;97552.00;;;19.10
21210;BMP180;10762;42.206;25.326;2024-01-07T11:29:00;97552.00;;;19.10
21210;BMP180;10762;42.206;25.326;2024-01-07T11:34:04;97554.00;;;19.20
21210;BMP180;10762;42.206;25.326;2024-01-07T11:36:30;97548.00;;;19.30
21210;BMP180;10762;42.206;25.326;2024-01-07T11:38:56;97546.00;;;19.50
21210;BMP180;10762;42.206;25.326;2024-01-07T11:41:23;97546.00;;;19.50
21210;BMP180;10762;42.206;25.326;2024-01-07T11:43:57;97544.00;;;19.60
21210;BMP180;10762;42.206;25.326;2024-01-07T11:46:28;97544.00;;;19.70
21210;BMP180;10762;42.206;25.326;2024-01-07T11:48:55;97547.00;;;19.80
21210;BMP180;10762;42.206;25.326;2024-01-07T11:51:25;97536.00;;;19.90
21210;BMP180;10762;42.206;25.326;2024-01-07T11:53:52;97550.00;;;19.90
21210;BMP180;10762;42.206;25.326;2024-01-07T11:56:18;97541.00;;;20.00
21210;BMP180;10762;42.206;25.326;2024-01-07T11:58:44;97533.00;;;20.10
21210;BMP180;10762;42.206;25.326;2024-01-07T12:01:10;97533.00;;;20.20
21210;BMP180;10762;42.206;25.326;2024-01-07T12:03:36;97529.00;;;20.20
21210;BMP180;10762;42.206;25.326;2024-01-07T12:06:03;97517.00;;;20.30
21210;BMP180;10762;42.206;25.326;2024-01-07T12:08:29;97522.00;;;20.30
21210;BMP180;10762;42.206;25.326;2024-01-07T12:10:56;97517.00;;;20.30
21210;BMP180;10762;42.206;25.326;2024-01-07T12:13:22;97512.00;;;20.30
21210;BMP180;10762;42.206;25.326;2024-01-07T12:15:49;97513.00;;;20.30
21210;BMP180;10762;42.206;25.326;2024-01-07T12:18:15;97517.00;;;20.20
21210;BMP180;10762;42.206;25.326;2024-01-07T12:20:41;97521.00;;;20.20
21210;BMP180;10762;42.206;25.326;2024-01-07T12:23:07;97515.00;;;20.20
21210;BMP180;10762;42.206;25.326;2024-01-07T12:25:34;97517.00;;;20.20
21210;BMP180;10762;42.206;25.326;2024-01-07T12:28:01;97513.00;;;20.20
21210;BMP180;10762;42.206;25.326;2024-01-07T12:30:27;97510.00;;;20.20
21210;BMP180;10762;42.206;25.326;2024-01-07T12:32:53;97510.00;;;20.20
21210;BMP180;10762;42.206;25.326;2024-01-07T12:35:20;97503.00;;;20.30
21210;BMP180;10762;42.206;25.326;2024-01-07T12:37:47;97499.00;;;20.30
21210;BMP180;10762;42.206;25.326;2024-01-07T12:40:13;97512.00;;;20.30
21210;BMP180;10762;42.206;25.326;2024-01-07T12:42:40;97511.00;;;20.30
21210;BMP180;10762;42.206;25.326;2024-01-07T12:45:11;97509.00;;;20.20
21210;BMP180;10762;42.206;25.326;2024-01-07T12:47:39;97504.00;;;20.20
21210;BMP180;10762;42.206;25.326;2024-01-07T12:50:06;97510.00;;;20.20
21210;BMP180;10762;42.206;25.326;2024-01-07T12:52:35;97512.00;;;20.10
21210;BMP180;10762;42.206;25.326;2024-01-07T12:55:01;97522.00;;;20.10
21210;BMP180;10762;42.206;25.326;2024-01-07T12:57:27;97518.00;;;20.10
21210;BMP180;10762;42.206;25.326;2024-01-07T12:59:53;97522.00;;;20.00
21210;BMP180;10762;42.206;25.326;2024-01-07T13:02:20;97521.00;;;20.00
21210;BMP180;10762;42.206;25.326;2024-01-07T13:04:46;97513.00;;;20.00
21210;BMP180;10762;42.206;25.326;2024-01-07T13:07:12;97516.00;;;20.00
21210;BMP180;10762;42.206;25.326;2024-01-07T13:09:38;97520.00;;;19.90
21210;BMP180;10762;42.206;25.326;2024-01-07T13:12:04;97518.00;;;19.90
21210;BMP180;10762;42.206;25.326;2024-01-07T13:14:30;97505.00;;;19.90
21210;BMP180;10762;42.206;25.326;2024-01-07T13:16:56;97505.00;;;19.90
21210;BMP180;10762;42.206;25.326;2024-01-07T13:19:23;97521.00;;;19.90
21210;BMP180;10762;42.206;25.326;2024-01-07T13:21:49;97510.00;;;19.80
21210;BMP180;10762;42.206;25.326;2024-01-07T13:24:15;97520.00;;;19.80
21210;BMP180;10762;42.206;25.326;2024-01-07T13:26:41;97524.00;;;19.80
21210;BMP180;10762;42.206;25.326;2024-01-07T13:29:07;97519.00;;;19.80
21210;BMP180;10762;42.206;25.326;2024-01-07T13:31:33;97522.00;;;19.80
21210;BMP180;10762;42.206;25.326;2024-01-07T13:34:00;97520.00;;;19.80
21210;BMP180;10762;42.206;25.326;2024-01-07T13:36:26;97526.00;;;19.80
21210;BMP180;10762;42.206;25.326;2024-01-07T13:38:52;97520.00;;;19.80
21210;BMP180;10762;42.206;25.326;2024-01-07T13:41:18;97510.00;;;19.80
21210;BMP180;10762;42.206;25.326;2024-01-07T13:43:44;97516.00;;;19.80
21210;BMP180;10762;42.206;25.326;2024-01-07T13:46:10;97519.00;;;19.80
21210;BMP180;10762;42.206;25.326;2024-01-07T13:48:36;97512.00;;;19.80
21210;BMP180;10762;42.206;25.326;2024-01-07T13:51:05;97496.00;;;19.80
21210;BMP180;10762;42.206;25.326;2024-01-07T13:53:31;97495.00;;;19.80
21210;BMP180;10762;42.206;25.326;2024-01-07T13:55:57;97505.00;;;19.80